sensor_id;sensor_type;location;lat;lon;timestamp;pressure;altitude;pressure_sealevel;temperature;humidity
929;BME280;451;47.988;7.842;2023-08-07T00:03:47;98630.94;;;15.98;78.60
929;BME280;451;47.988;7.842;2023-08-07T00:12:50;98575.41;;;15.77;75.47
929;BME280;451;47.988;7.842;2023-08-07T00:21:55;98638.69;;;15.99;75.26
929;BME280;451;47.988;7.842;2023-08-07T00:30:58;98652.66;;;16.41;74.85
929;BME280;451;47.988;7.842;2023-08-07T00:40:03;98630.16;;;16.17;76.36
929;BME280;451;47.988;7.842;2023-08-07T00:49:07;98616.44;;;15.94;75.56
929;BME280;451;47.988;7.842;2023-08-07T00:58:13;98624.84;;;16.04;75.77
929;BME280;451;47.988;7.842;2023-08-07T01:07:17;98624.00;;;15.97;75.44
929;BME280;451;47.988;7.842;2023-08-07T01:16:27;98623.22;;;16.16;75.12
929;BME280;451;47.988;7.842;2023-08-07T01:25:34;98617.66;;;15.85;76.75
929;BME280;451;47.988;7.842;2023-08-07T01:34:41;98609.22;;;15.61;77.04
929;BME280;451;47.988;7.842;2023-08-07T01:43:46;98635.44;;;16.04;77.33
929;BME280;451;47.988;7.842;2023-08-07T01:52:50;98646.25;;;16.09;80.14
929;BME280;451;47.988;7.842;2023-08-07T02:01:54;98633.72;;;15.77;82.48
929;BME280;451;47.988;7.842;2023-08-07T02:10:58;98659.00;;;15.72;82.43
929;BME280;451;47.988;7.842;2023-08-07T02:20:05;98599.84;;;15.65;82.79
929;BME280;451;47.988;7.842;2023-08-07T02:29:09;98646.19;;;15.83;84.32
929;BME280;451;47.988;7.842;2023-08-07T02:38:13;98632.25;;;15.61;86.67
929;BME280;451;47.988;7.842;2023-08-07T02:47:17;98651.22;;;15.64;86.86
929;BME280;451;47.988;7.842;2023-08-07T02:56:22;98652.25;;;15.29;93.76
929;BME280;451;47.988;7.842;2023-08-07T03:05:26;98645.25;;;15.15;95.65
929;BME280;451;47.988;7.842;2023-08-07T03:14:31;98642.66;;;15.28;94.32
929;BME280;451;47.988;7.842;2023-08-07T03:23:35;98656.34;;;15.72;89.11
929;BME280;451;47.988;7.842;2023-08-07T03:32:42;98613.22;;;15.51;87.67
929;BME280;451;47.988;7.842;2023-08-07T03:41:48;98649.19;;;15.66;87.69
929;BME280;451;47.988;7.842;2023-08-07T03:51:01;98633.88;;;15.55;90.47
929;BME280;451;47.988;7.842;2023-08-07T04:00:07;98643.03;;;15.53;92.89
929;BME280;451;47.988;7.842;2023-08-07T04:09:18;98641.72;;;15.08;95.76
929;BME280;451;47.988;7.842;2023-08-07T04:18:21;98629.41;;;14.93;95.85
929;BME280;451;47.988;7.842;2023-08-07T04:27:26;98649.38;;;15.24;99.38
929;BME280;451;47.988;7.842;2023-08-07T04:36:29;98654.09;;;15.01;100.00
929;BME280;451;47.988;7.842;2023-08-07T04:45:34;98654.09;;;15.01;100.00
929;BME280;451;47.988;7.842;2023-08-07T04:54:39;98677.03;;;15.15;100.00
929;BME280;451;47.988;7.842;2023-08-07T05:03:48;98684.38;;;15.19;97.46
929;BME280;451;47.988;7.842;2023-08-07T05:12:51;98680.53;;;15.22;94.75
929;BME280;451;47.988;7.842;2023-08-07T05:21:58;98671.81;;;15.00;95.67
929;BME280;451;47.988;7.842;2023-08-07T05:31:01;98703.50;;;15.15;99.36
929;BME280;451;47.988;7.842;2023-08-07T05:40:07;98693.63;;;15.30;100.00
929;BME280;451;47.988;7.842;2023-08-07T05:49:13;98706.00;;;15.23;98.39
929;BME280;451;47.988;7.842;2023-08-07T05:58:18;98691.00;;;15.37;99.29
929;BME280;451;47.988;7.842;2023-08-07T06:07:21;98712.59;;;15.61;93.74
929;BME280;451;47.988;7.842;2023-08-07T06:16:26;98722.09;;;15.90;92.32
929;BME280;451;47.988;7.842;2023-08-07T06:25:29;98729.81;;;16.52;88.67
929;BME280;451;47.988;7.842;2023-08-07T06:34:34;98741.63;;;16.37;86.39
929;BME280;451;47.988;7.842;2023-08-07T06:43:39;98737.69;;;16.20;87.62
929;BME280;451;47.988;7.842;2023-08-07T06:52:44;98734.44;;;16.11;88.51
929;BME280;451;47.988;7.842;2023-08-07T07:01:47;98745.94;;;15.84;90.37
929;BME280;451;47.988;7.842;2023-08-07T07:10:52;98751.69;;;16.48;87.07
929;BME280;451;47.988;7.842;2023-08-07T07:19:55;98760.84;;;16.52;87.05
929;BME280;451;47.988;7.842;2023-08-07T07:29:00;98772.19;;;16.74;84.64
929;BME280;451;47.988;7.842;2023-08-07T07:38:03;98780.38;;;17.05;83.16
929;BME280;451;47.988;7.842;2023-08-07T07:47:08;98791.16;;;17.56;79.16
929;BME280;451;47.988;7.842;2023-08-07T07:56:12;98778.94;;;17.36;84.70
929;BME280;451;47.988;7.842;2023-08-07T08:05:17;98791.59;;;16.94;93.69
929;BME280;451;47.988;7.842;2023-08-07T08:14:20;98794.59;;;17.96;86.27
929;BME280;451;47.988;7.842;2023-08-07T08:23:25;98799.78;;;17.65;84.42
929;BME280;451;47.988;7.842;2023-08-07T08:32:28;98818.19;;;17.20;93.69
929;BME280;451;47.988;7.842;2023-08-07T08:41:33;98823.91;;;17.44;91.80
929;BME280;451;47.988;7.842;2023-08-07T08:50:38;98773.47;;;16.37;100.00
929;BME280;451;47.988;7.842;2023-08-07T08:59:44;98833.50;;;17.31;100.00
929;BME280;451;47.988;7.842;2023-08-07T09:08:48;98824.00;;;18.72;93.07
929;BME280;451;47.988;7.842;2023-08-07T09:17:54;98826.59;;;18.41;87.52
929;BME280;451;47.988;7.842;2023-08-07T09:26:58;98793.84;;;19.10;88.55
929;BME280;451;47.988;7.842;2023-08-07T09:36:04;98795.78;;;19.70;74.38
929;BME280;451;47.988;7.842;2023-08-07T09:45:19;98834.91;;;19.27;81.41
929;BME280;451;47.988;7.842;2023-08-07T09:54:24;98827.34;;;19.24;83.99
929;BME280;451;47.988;7.842;2023-08-07T10:03:28;98838.28;;;18.84;85.62
929;BME280;451;47.988;7.842;2023-08-07T10:12:33;98827.81;;;19.70;77.37
929;BME280;451;47.988;7.842;2023-08-07T10:21:38;98828.44;;;19.91;76.77
929;BME280;451;47.988;7.842;2023-08-07T10:30:45;98816.31;;;21.32;62.40
929;BME280;451;47.988;7.842;2023-08-07T10:40:03;98811.09;;;20.55;65.10
929;BME280;451;47.988;7.842;2023-08-07T10:49:08;98836.28;;;21.18;58.55
929;BME280;451;47.988;7.842;2023-08-07T10:58:23;98831.47;;;21.62;61.51
929;BME280;451;47.988;7.842;2023-08-07T11:07:29;98840.34;;;22.49;57.78
929;BME280;451;47.988;7.842;2023-08-07T11:16:33;98782.78;;;22.23;57.58
929;BME280;451;47.988;7.842;2023-08-07T11:25:38;98809.47;;;23.65;54.08
929;BME280;451;47.988;7.842;2023-08-07T11:34:48;98780.31;;;22.90;53.58
929;BME280;451;47.988;7.842;2023-08-07T11:43:52;98818.53;;;22.29;54.78
929;BME280;451;47.988;7.842;2023-08-07T11:52:56;98818.06;;;22.60;54.21
929;BME280;451;47.988;7.842;2023-08-07T12:02:10;98805.53;;;23.39;50.84
929;BME280;451;47.988;7.842;2023-08-07T12:11:14;98760.59;;;23.85;49.29
929;BME280;451;47.988;7.842;2023-08-07T12:20:22;98799.03;;;23.35;51.51
929;BME280;451;47.988;7.842;2023-08-07T12:29:25;98746.25;;;22.90;50.88
929;BME280;451;47.988;7.842;2023-08-07T12:38:32;98798.31;;;23.95;45.92
929;BME280;451;47.988;7.842;2023-08-07T12:47:35;98789.47;;;24.16;44.61
929;BME280;451;47.988;7.842;2023-08-07T12:56:40;98778.06;;;23.49;46.49
929;BME280;451;47.988;7.842;2023-08-07T13:05:43;98791.91;;;21.17;51.49
929;BME280;451;47.988;7.842;2023-08-07T13:14:47;98747.56;;;21.56;49.78
929;BME280;451;47.988;7.842;2023-08-07T13:23:51;98797.06;;;23.14;54.22
929;BME280;451;47.988;7.842;2023-08-07T13:32:55;98799.34;;;21.85;52.38
929;BME280;451;47.988;7.842;2023-08-07T13:41:59;98808.59;;;22.69;50.28
929;BME280;451;47.988;7.842;2023-08-07T13:51:04;98810.75;;;22.16;50.40
929;BME280;451;47.988;7.842;2023-08-07T14:00:11;98821.59;;;22.49;50.36
929;BME280;451;47.988;7.842;2023-08-07T14:09:16;98824.72;;;21.71;55.39
929;BME280;451;47.988;7.842;2023-08-07T14:18:20;98816.69;;;22.58;53.04
929;BME280;451;47.988;7.842;2023-08-07T14:27:25;98831.03;;;22.91;48.38
929;BME280;451;47.988;7.842;2023-08-07T14:36:28;98810.91;;;23.39;46.46
929;BME280;451;47.988;7.842;2023-08-07T14:45:33;98822.75;;;23.43;45.88
929;BME280;451;47.988;7.842;2023-08-07T14:54:36;98813.16;;;23.81;46.95
929;BME280;451;47.988;7.842;2023-08-07T15:03:40;98805.72;;;24.04;45.09
929;BME280;451;47.988;7.842;2023-08-07T15:12:44;98806.88;;;23.53;46.75
929;BME280;451;47.988;7.842;2023-08-07T15:21:50;98787.97;;;23.15;47.49
929;BME280;451;47.988;7.842;2023-08-07T15:30:53;98781.47;;;22.66;48.46
929;BME280;451;47.988;7.842;2023-08-07T15:39:57;98802.94;;;22.14;51.89
929;BME280;451;47.988;7.842;2023-08-07T15:49:01;98803.91;;;22.48;53.11
929;BME280;451;47.988;7.842;2023-08-07T15:58:06;98792.16;;;22.77;53.97
929;BME280;451;47.988;7.842;2023-08-07T16:07:09;98794.50;;;22.62;53.99
929;BME280;451;47.988;7.842;2023-08-07T16:16:14;98724.66;;;21.72;56.49
929;BME280;451;47.988;7.842;2023-08-07T16:25:17;98781.47;;;22.26;57.19
929;BME280;451;47.988;7.842;2023-08-07T16:34:21;98766.09;;;21.58;58.98
929;BME280;451;47.988;7.842;2023-08-07T16:43:25;98777.25;;;21.31;61.92
929;BME280;451;47.988;7.842;2023-08-07T16:52:29;98774.94;;;21.35;63.23
929;BME280;451;47.988;7.842;2023-08-07T17:01:32;98744.91;;;21.21;63.80
929;BME280;451;47.988;7.842;2023-08-07T17:10:37;98796.06;;;21.37;64.94
929;BME280;451;47.988;7.842;2023-08-07T17:19:40;98807.13;;;21.17;67.06
929;BME280;451;47.988;7.842;2023-08-07T17:28:45;98789.84;;;21.01;67.17
929;BME280;451;47.988;7.842;2023-08-07T17:37:48;98801.78;;;20.87;66.30
929;BME280;451;47.988;7.842;2023-08-07T17:46:53;98807.25;;;20.32;68.79
929;BME280;451;47.988;7.842;2023-08-07T17:55:56;98799.44;;;19.76;72.56
929;BME280;451;47.988;7.842;2023-08-07T18:05:02;98775.47;;;19.69;74.05
929;BME280;451;47.988;7.842;2023-08-07T18:14:06;98778.06;;;19.33;76.09
929;BME280;451;47.988;7.842;2023-08-07T18:23:10;98812.28;;;19.36;78.73
929;BME280;451;47.988;7.842;2023-08-07T18:32:13;98740.63;;;18.97;78.81
929;BME280;451;47.988;7.842;2023-08-07T18:41:18;98794.34;;;18.93;81.78
929;BME280;451;47.988;7.842;2023-08-07T18:50:21;98798.97;;;18.80;82.39
929;BME280;451;47.988;7.842;2023-08-07T18:59:26;98805.63;;;18.58;83.18
929;BME280;451;47.988;7.842;2023-08-07T19:08:29;98806.09;;;18.48;84.73
929;BME280;451;47.988;7.842;2023-08-07T19:17:33;98787.41;;;18.03;87.58
929;BME280;451;47.988;7.842;2023-08-07T19:26:37;98815.91;;;17.83;88.90
929;BME280;451;47.988;7.842;2023-08-07T19:35:43;98823.09;;;17.37;90.99
929;BME280;451;47.988;7.842;2023-08-07T19:44:46;98819.41;;;17.11;93.27
929;BME280;451;47.988;7.842;2023-08-07T19:53:50;98820.81;;;16.94;94.00
929;BME280;451;47.988;7.842;2023-08-07T20:02:54;98831.19;;;16.76;96.43
929;BME280;451;47.988;7.842;2023-08-07T20:11:58;98826.00;;;16.48;98.27
929;BME280;451;47.988;7.842;2023-08-07T20:21:02;98836.63;;;16.54;98.46
929;BME280;451;47.988;7.842;2023-08-07T20:30:09;98835.56;;;16.42;98.99
929;BME280;451;47.988;7.842;2023-08-07T20:39:12;98768.94;;;16.18;96.57
929;BME280;451;47.988;7.842;2023-08-07T20:48:17;98815.44;;;16.20;97.25
929;BME280;451;47.988;7.842;2023-08-07T20:57:20;98826.56;;;16.43;97.94
929;BME280;451;47.988;7.842;2023-08-07T21:06:25;98816.78;;;16.50;95.35
929;BME280;451;47.988;7.842;2023-08-07T21:15:28;98824.13;;;16.42;95.84
929;BME280;451;47.988;7.842;2023-08-07T21:24:33;98831.13;;;15.81;100.00
929;BME280;451;47.988;7.842;2023-08-07T21:33:36;98819.41;;;15.96;100.00
929;BME280;451;47.988;7.842;2023-08-07T21:42:42;98800.22;;;15.94;97.73
929;BME280;451;47.988;7.842;2023-08-07T21:51:45;98807.47;;;15.72;99.13
929;BME280;451;47.988;7.842;2023-08-07T22:00:50;98731.56;;;15.09;99.99
929;BME280;451;47.988;7.842;2023-08-07T22:09:53;98792.16;;;15.47;100.00
929;BME280;451;47.988;7.842;2023-08-07T22:18:58;98791.03;;;15.07;100.00
929;BME280;451;47.988;7.842;2023-08-07T22:28:03;98795.78;;;14.90;100.00
929;BME280;451;47.988;7.842;2023-08-07T22:37:08;98770.59;;;15.22;100.00
929;BME280;451;47.988;7.842;2023-08-07T22:46:11;98777.91;;;15.20;100.00
929;BME280;451;47.988;7.842;2023-08-07T22:55:17;98777.31;;;15.24;100.00
929;BME280;451;47.988;7.842;2023-08-07T23:04:21;98770.72;;;15.14;100.00
929;BME280;451;47.988;7.842;2023-08-07T23:13:25;98731.53;;;14.81;100.00
929;BME280;451;47.988;7.842;2023-08-07T23:22:29;98750.34;;;14.65;100.00
929;BME280;451;47.988;7.842;2023-08-07T23:31:33;98723.81;;;14.59;100.00
929;BME280;451;47.988;7.842;2023-08-07T23:40:37;98733.13;;;14.19;100.00
929;BME280;451;47.988;7.842;2023-08-07T23:49:42;98706.75;;;14.40;100.00
929;BME280;451;47.988;7.842;2023-08-07T23:58:45;98716.81;;;14.51;100.00
